Kingston Springs, TN

8:11 PM CST on December 26, 2014 (GMT -0600)
Campbell Army Air Field | Change Station
CLOSE
Current Station
Airport
Location: Fort Campbell,
Elevation: 571 ft
Nearby Weather Stations

Elev 571 ft 36.67 °N, 87.50 °W | Updated 13 minutes ago

Mostly Cloudy
Mostly Cloudy
48 °F
Feels Like 48 °F
N
7
Wind Variable Wind from South

Today
High -- | Low -- °F
--% Chance of Precip.
Yesterday
High -- | Low -- °F
Precip. -- in
6:57 AM 4:40 PM
Waxing Crescent, 31% visible
Pressure 30.21 in
Visibility 10.0 miles
Clouds Mostly Cloudy 12000 ft
Overcast 15000 ft
Dew Point 37 °F
Humidity 65%
Rainfall 0.00 in
Snow Depth Not available.
UV 0 out of 12
Pollen .10 out of 12
Air Quality Not available.
Flu Activity Not available.
METAR KHOP 270158Z AUTO 19006KT 10SM BKN120 OVC150 09/03 A3019 RMK AO2 SLP228 T00880026

More Conditions Fewer Conditions

Pressure 30.21 in
Visibility 10.0 miles
Clouds Mostly Cloudy 12000 ft
Overcast 15000 ft
Dew Point 37 °F
Humidity 65%
Rainfall 0.00 in
Snow Depth Not available.
UV 0 out of 12
Pollen .10 out of 12
Air Quality Not available.
Flu Activity Not available.
METAR KHOP 270158Z AUTO 19006KT 10SM BKN120 OVC150 09/03 A3019 RMK AO2 SLP228 T00880026

More Conditions Fewer Conditions

10-Day Weather Forecast

Almanac

Astronomy

Dec. 26, 2014 Rise Set
Actual Time
Civil Twilight
Nautical Twilight
Astronomical Twilight
Moon
Length of Visible Light
Length of Day
Tomorrow will be .
, % of the Moon is Illuminated

Today's Extremes

State Highs State Lows

Community

WunderPhotos

Upload Photos

1,780,811 photos uploaded!

WunderBlogs® & News

Nearby

Air Quality

  Air Quality AQ Index Pollutant
Not available.

Snow Depth

Station Depth Elevation

Earthquake Activity

City Distance Mag. Time & Date
Minimum magnitude displayed is 2.5.

Coastal Water Temperatures

Place Temperature

Nearby Weather Stations